Snoqualmie River: South Fork station

back to: Snoqualmie river
South Fork station Summary - (NOAA Hydrograph: GARW1)
Latest reading:
Fri10/20 02:15 am 12.28 ft 900 cfs (-104/hr)
Past 24hr max:
Thu10/19 06:15 pm 12.71 ft 1183 cfs
Forecasted crests: (published Thu 10/19/17 06:20 pm)
Sun10/22 05:00 am 15.85 ft 4320 cfs
Sat10/28 11:00 pm 10.64 ft 209 cfs

South Fork station Details

Latest Readings

Last 100 Readings:
Fri10/20 02:15 am 12.28 ft 900 cfs
Fri10/20 02:00 am 12.32 ft 926 cfs
Fri10/20 01:45 am 12.32 ft 926 cfs
Fri10/20 01:30 am 12.33 ft 932 cfs
Fri10/20 01:15 am 12.34 ft 938 cfs
Fri10/20 01:00 am 12.4 ft 976 cfs
Fri10/20 12:45 am 12.39 ft 969 cfs
Fri10/20 12:30 am 12.4 ft 976 cfs
Fri10/20 12:15 am 12.43 ft 995 cfs
Fri10/20 12:00 am 12.43 ft 995 cfs
Thu10/19 11:45 pm 12.45 ft 1008 cfs
Thu10/19 11:30 pm 12.46 ft 1015 cfs
Thu10/19 11:15 pm 12.52 ft 1054 cfs
Thu10/19 11:00 pm 12.52 ft 1054 cfs
Thu10/19 10:45 pm 12.56 ft 1081 cfs
Thu10/19 10:30 pm 12.52 ft 1054 cfs
Thu10/19 10:15 pm 12.55 ft 1074 cfs
Thu10/19 10:00 pm 12.56 ft 1081 cfs
Thu10/19 09:45 pm 12.58 ft 1094 cfs
Thu10/19 09:30 pm 12.62 ft 1121 cfs
Thu10/19 09:15 pm 12.62 ft 1121 cfs
Thu10/19 09:00 pm 12.62 ft 1121 cfs
Thu10/19 08:45 pm 12.58 ft 1094 cfs
Thu10/19 08:30 pm 12.58 ft 1094 cfs
Thu10/19 08:15 pm 12.63 ft 1128 cfs
Thu10/19 08:00 pm 12.61 ft 1114 cfs
Thu10/19 07:45 pm 12.61 ft 1114 cfs
Thu10/19 07:30 pm 12.63 ft 1128 cfs
Thu10/19 07:15 pm 12.66 ft 1149 cfs
Thu10/19 07:00 pm 12.66 ft 1149 cfs
Thu10/19 06:45 pm 12.63 ft 1128 cfs
Thu10/19 06:30 pm 12.7 ft 1176 cfs
Thu10/19 06:15 pm 12.71 ft 1183 cfs
Thu10/19 06:00 pm 12.67 ft 1156 cfs
Thu10/19 05:45 pm 12.68 ft 1163 cfs
Thu10/19 05:30 pm 12.69 ft 1169 cfs
Thu10/19 05:15 pm 12.68 ft 1163 cfs
Thu10/19 05:00 pm 12.65 ft 1142 cfs
Thu10/19 04:45 pm 12.67 ft 1156 cfs
Thu10/19 04:30 pm 12.61 ft 1114 cfs
Thu10/19 04:15 pm 12.64 ft 1135 cfs
Thu10/19 04:00 pm 12.58 ft 1094 cfs
Thu10/19 03:45 pm 12.61 ft 1114 cfs
Thu10/19 03:30 pm 12.58 ft 1094 cfs
Thu10/19 03:15 pm 12.52 ft 1054 cfs
Thu10/19 03:00 pm 12.51 ft 1048 cfs
Thu10/19 02:45 pm 12.53 ft 1061 cfs
Thu10/19 02:30 pm 12.47 ft 1021 cfs
Thu10/19 02:15 pm 12.47 ft 1021 cfs
Thu10/19 02:00 pm 12.5 ft 1041 cfs
Thu10/19 01:45 pm 12.49 ft 1034 cfs
Thu10/19 01:30 pm 12.48 ft 1028 cfs
Thu10/19 01:15 pm 12.49 ft 1034 cfs
Thu10/19 01:00 pm 12.49 ft 1034 cfs
Thu10/19 12:45 pm 12.48 ft 1028 cfs
Thu10/19 12:30 pm 12.49 ft 1034 cfs
Thu10/19 12:15 pm 12.49 ft 1034 cfs
Thu10/19 12:00 pm 12.48 ft 1028 cfs
Thu10/19 11:45 am 12.48 ft 1028 cfs
Thu10/19 11:30 am 12.52 ft 1054 cfs
Thu10/19 11:15 am 12.49 ft 1034 cfs
Thu10/19 11:00 am 12.48 ft 1028 cfs
Thu10/19 10:45 am 12.42 ft 989 cfs
Thu10/19 10:30 am 12.47 ft 1021 cfs
Thu10/19 10:15 am 12.49 ft 1034 cfs
Thu10/19 10:00 am 12.5 ft 1041 cfs
Thu10/19 09:45 am 12.48 ft 1028 cfs
Thu10/19 09:30 am 12.44 ft 1002 cfs
Thu10/19 09:15 am 12.48 ft 1028 cfs
Thu10/19 09:00 am 12.5 ft 1041 cfs
Thu10/19 08:45 am 12.52 ft 1054 cfs
Thu10/19 08:30 am 12.46 ft 1015 cfs
Thu10/19 08:15 am 12.5 ft 1041 cfs
Thu10/19 08:00 am 12.58 ft 1094 cfs
Thu10/19 07:45 am 12.55 ft 1074 cfs
Thu10/19 07:30 am 12.55 ft 1074 cfs
Thu10/19 07:15 am 12.58 ft 1094 cfs
Thu10/19 07:00 am 12.59 ft 1101 cfs
Thu10/19 06:45 am 12.58 ft 1094 cfs
Thu10/19 06:30 am 12.63 ft 1128 cfs
Thu10/19 06:15 am 12.61 ft 1114 cfs
Thu10/19 06:00 am 12.61 ft 1114 cfs
Thu10/19 05:45 am 12.65 ft 1142 cfs
Thu10/19 05:30 am 12.64 ft 1135 cfs
Thu10/19 05:15 am 12.61 ft 1114 cfs
Thu10/19 05:00 am 12.65 ft 1142 cfs
Thu10/19 04:45 am 12.65 ft 1142 cfs
Thu10/19 04:30 am 12.55 ft 1074 cfs
Thu10/19 04:15 am 12.56 ft 1081 cfs
Thu10/19 04:00 am 12.48 ft 1028 cfs
Thu10/19 03:45 am 12.43 ft 995 cfs
Thu10/19 03:30 am 12.41 ft 982 cfs
Thu10/19 03:15 am 12.34 ft 938 cfs
Thu10/19 03:00 am 12.29 ft 907 cfs
Thu10/19 02:45 am 12.21 ft 858 cfs
Thu10/19 02:30 am 12.16 ft 828 cfs
Thu10/19 02:15 am 12.08 ft 782 cfs
Thu10/19 02:00 am 12.0 ft 736 cfs
Thu10/19 01:45 am 11.92 ft 692 cfs
Thu10/19 01:30 am 11.83 ft 644 cfs

Latest Forecasts

Currently Forecasted Readings:
Thu10/19 11:00 pm 13.0 ft 1394 cfs
Fri10/20 05:00 am 12.83 ft 1271 cfs
Fri10/20 11:00 am 12.26 ft 890 cfs
Fri10/20 05:00 pm 11.83 ft 642 cfs
Fri10/20 11:00 pm 11.7 ft 578 cfs
Sat10/21 05:00 am 11.5 ft 481 cfs
Sat10/21 11:00 am 11.44 ft 454 cfs
Sat10/21 05:00 pm 11.83 ft 643 cfs
Sat10/21 11:00 pm 15.02 ft 3314 cfs
Sun10/22 05:00 am 15.85 ft 4320 cfs
Sun10/22 11:00 am 14.59 ft 2838 cfs
Sun10/22 05:00 pm 13.45 ft 1758 cfs
Sun10/22 11:00 pm 12.73 ft 1196 cfs
Mon10/23 05:00 am 12.3 ft 913 cfs
Mon10/23 11:00 am 11.98 ft 724 cfs
Mon10/23 05:00 pm 11.74 ft 596 cfs
Mon10/23 11:00 pm 11.59 ft 525 cfs
Tue10/24 05:00 am 11.49 ft 479 cfs
Tue10/24 11:00 am 11.42 ft 444 cfs
Tue10/24 05:00 pm 11.35 ft 416 cfs
Tue10/24 11:00 pm 11.29 ft 389 cfs
Wed10/25 05:00 am 11.21 ft 366 cfs
Wed10/25 11:00 am 11.15 ft 348 cfs
Wed10/25 05:00 pm 11.09 ft 326 cfs
Wed10/25 11:00 pm 11.03 ft 308 cfs
Thu10/26 05:00 am 10.96 ft 291 cfs
Thu10/26 11:00 am 10.9 ft 276 cfs
Thu10/26 05:00 pm 10.85 ft 263 cfs
Thu10/26 11:00 pm 10.8 ft 250 cfs
Fri10/27 05:00 am 10.76 ft 239 cfs
Fri10/27 11:00 am 10.72 ft 228 cfs
Fri10/27 05:00 pm 10.68 ft 218 cfs
Fri10/27 11:00 pm 10.65 ft 212 cfs
Sat10/28 05:00 am 10.61 ft 202 cfs
Sat10/28 11:00 am 10.58 ft 194 cfs
Sat10/28 05:00 pm 10.56 ft 189 cfs
Sat10/28 11:00 pm 10.64 ft 209 cfs
Sun10/29 05:00 am 10.62 ft 203 cfs

Snoqualmie River flood gauge data supplied by the
National Weather Service Northwest River Forecast Center.

Sign up for Floodzilla alerts.